< < Back
Terminal Aerodrome Forecast


Current Version              Previous Versions:   1  2  3  4  5  6  7  8  9  

Terminal Aerodrome Forecast

439
FTUS42 KJAX 241720
TAFJAX
TAF
KJAX 241720Z 2418/2518 12006KT P6SM SCT060 SCT250
     FM242000 14008KT P6SM FEW060 SCT250
     FM250200 VRB02KT P6SM FEW250
     FM251400 14006KT P6SM FEW050 FEW250=

Latest METAR

850
SAUS80 KWBC 251800 CCA
MTRJAX
METAR KJAX 251756Z 12010KT 10SM SCT040 SCT060 SCT200 31/12 A3021 RMK AO2
SLP231 T03060122 10306 20206 58009


USA.gov is the U.S. government's official web portal to all federal, state and local government web resources and services.